Гвардейская

Карта отелей и гостиниц, располагающихся рядом с аэропортом Гвардейская :

Гвардейская Калининградская область 54° 39' 10.6884" N, 20° 59' 37.0896" E
Гвардейская Калининградская область 54° 39' 10.6884" N, 20° 59' 37.0896" E
Код аэродрома ИКАО
UMKB
Код аэродрома RU
УМКБ
Координаты
N54.65297° E020.99364°
Превышение над уровнем моря
27
Основная полоса
36/18
Курс магнитный
001,6/181,6
Длина основной ВПП
400
Ширина основной ВПП
20
Покрытие основной ВПП
Твёрдое (асфальтобетон)
Освещение ВПП
Нет
Тип: 
Аэродром
Класс аэродрома: 
Принадлежность: 
АОН
Статус: 
Действующий
Сайт: 
E-mail аэродрома: 
Страна: 
Россия
Регион: 
Калининградская область
Город: 
Дополнительная информация: 
Калининградский особый район, Россия. Бывшая площадка АХР. Базируется Аэроклуб "Гвардейский". Авиауслуги: полёты ознакомительные Як-18Т, на пилотаж Як-52. Прыжки с парашютом с самолета Ан-2 на Д1-5У. Обучение курсу "AFF".

Найти трансфер

С помощью этой формы Вы можете найти трансфер из аэропорта Гвардейская в город, аэропорт или вокзал:

Погода в аэропортах:

Авиационная погода в Закаталы

Регион: 
Погода METAR: 
UBBY 040100Z 08014KT 5000 -SHRA SCT040CB OVC045 15/14 Q1019 NOSIG RMK MT OBSC
Время наблюдения
2022-07-04T01:00:00Z
Температура C
15.0
Точка росы
14.0
Направление ветра
80
Скорость ветра (узлы)
14
Метео видимость
3.11
Облачность
SCT
OVC
Нижняя граница облачности (футы)
4000
4500
Явления погоды
-SHRA
Условия полета
MVFR
SCT – разбросанная отдельная облачность; OVC – сплошная облачность;
-SHRA - слабый ливневой дождь;

Авиационная погода в Игнатьево

Регион: 
Погода METAR: 
UHBB 282200Z 35002MPS 0150 0100W R36/M0200N FG VV002 18/18 Q1003 R36/090060 NOSIG RMK QBB060 QFE735/0980
Время наблюдения
2022-06-28T22:00:00Z
Температура C
18.0
Точка росы
18.0
Направление ветра
350
Скорость ветра (узлы)
4
Метео видимость
0.09
Облачность
OVX
Нижняя граница облачности (футы)
0
Явления погоды
FG
Условия полета
LIFR
Аэропорт подробнее: 
FG – туман (небо не видно, температура воздуха выше нуля или ноль);

Авиационная погода в Новокузнецке

Регион: 
Погода METAR: 
UNWW 282200Z 10001MPS 6000 0200S FG NSC 10/10 Q1008 R19/09//60 NOSIG RMK QFE729
Время наблюдения
2022-06-28T22:00:00Z
Температура C
10.0
Точка росы
10.0
Направление ветра
100
Скорость ветра (узлы)
2
Метео видимость
3.73
Облачность
CLR
Нижняя граница облачности (футы)
Явления погоды
FG
Условия полета
MVFR
Аэропорт подробнее: 
CLR — нет облаков ниже 3000 м
FG – туман (небо не видно, температура воздуха выше нуля или ноль);

Авиационная погода в Сургуте

Регион: 
Погода METAR: 
USRR 300330Z 02007MPS 350V050 9000 -SHRA SCT009 BKN018CB 10/09 Q0993 R07/290245 NOSIG RMK OBST OBSC QFE740
Время наблюдения
2022-06-30T03:30:00Z
Температура C
10.0
Точка росы
9.0
Направление ветра
20
Скорость ветра (узлы)
14
Метео видимость
5.59
Облачность
SCT
BKN
Нижняя граница облачности (футы)
900
1800
Явления погоды
-SHRA
Условия полета
MVFR
Аэропорт подробнее: 
SCT – разбросанная отдельная облачность; BKN – значительная (рассеянная, разорванная) облачность;
-SHRA - слабый ливневой дождь;